Time;durP1;ratioP1;P1;durP2;ratioP2;P2;SDS_P1;SDS_P2;PMS_P1;PMS_P2;Temp;Humidity;BMP_temperature;BMP_pressure;BME280_temperature;BME280_humidity;BME280_pressure;Samples;Min_cycle;Max_cycle;Signal;HPM_P1;HPM_P2
2022/12/02 00:02:03;;;;;;;110.45;49.35;;;;;;;-0.52;71.87;102121.38;6151280;23;20366;-70
2022/12/02 00:04:30;;;;;;;98.85;47.97;;;;;;;-0.47;71.84;102120.31;6122331;23;20025;-69
2022/12/02 00:06:58;;;;;;;102.03;47.58;;;;;;;-0.43;71.98;102106.09;6152490;23;20013;-70
2022/12/02 00:09:29;;;;;;;106.10;45.08;;;;;;;-0.69;71.72;102119.31;6149582;23;20049;-70
2022/12/02 00:12:00;;;;;;;80.07;37.20;;;;;;;-0.73;72.28;102115.06;6151321;23;20022;-69
2022/12/02 00:14:29;;;;;;;100.30;45.95;;;;;;;-0.79;72.75;102116.13;6151076;23;20515;-70
2022/12/02 00:16:56;;;;;;;103.90;46.83;;;;;;;-0.78;72.26;102117.88;6150053;23;20029;-70
2022/12/02 00:19:23;;;;;;;100.70;45.60;;;;;;;-0.92;72.98;102112.19;6150320;23;20151;-70
2022/12/02 00:21:50;;;;;;;93.90;45.22;;;;;;;-0.87;72.88;102118.19;6148880;23;20027;-69
2022/12/02 00:24:18;;;;;;;91.63;44.70;;;;;;;-0.96;72.57;102106.16;6152283;23;20092;-69
2022/12/02 00:26:45;;;;;;;107.72;44.58;;;;;;;-0.96;72.37;102110.59;6150817;23;20100;-69
2022/12/02 00:29:11;;;;;;;98.28;45.67;;;;;;;-0.85;72.46;102103.16;6115185;23;20021;-69
2022/12/02 00:31:38;;;;;;;97.70;43.85;;;;;;;-0.78;72.72;102099.44;6120123;23;20081;-69
2022/12/02 00:34:05;;;;;;;95.18;45.00;;;;;;;-0.75;72.32;102103.72;6121147;23;20077;-69
2022/12/02 00:36:32;;;;;;;96.35;46.60;;;;;;;-0.75;72.12;102103.72;6121247;23;20022;-69
2022/12/02 00:38:58;;;;;;;92.47;44.17;;;;;;;-0.83;72.54;102105.75;6122400;23;20045;-69
2022/12/02 00:41:25;;;;;;;99.53;47.78;;;;;;;-0.80;72.59;102100.41;6122627;23;20024;-69
2022/12/02 00:46:38;;;;;;;96.68;46.88;;;;;;;-1.12;73.02;102089.19;6118066;23;20024;-70
2022/12/02 00:49:11;;;;;;;91.80;44.40;;;;;;;-1.05;72.88;102087.22;6122202;23;20033;-69
2022/12/02 00:51:40;;;;;;;95.10;44.78;;;;;;;-0.95;72.98;102088.63;6123151;23;20080;-69
2022/12/02 00:54:06;;;;;;;98.70;45.33;;;;;;;-1.15;73.49;102082.22;6120946;23;20022;-69
2022/12/02 00:56:33;;;;;;;95.82;45.17;;;;;;;-1.02;73.22;102085.31;6109828;23;20020;-69
2022/12/02 00:59:00;;;;;;;95.63;45.63;;;;;;;-0.94;72.74;102083.28;6122479;23;20022;-71
2022/12/02 01:01:27;;;;;;;106.22;47.58;;;;;;;-1.08;73.14;102085.53;6121471;23;20025;-70
2022/12/02 01:03:54;;;;;;;96.80;45.80;;;;;;;-0.91;72.98;102087.59;6121756;23;20037;-70
2022/12/02 01:06:21;;;;;;;103.97;46.28;;;;;;;-1.09;73.76;102094.34;6122438;23;20026;-70
2022/12/02 01:08:47;;;;;;;106.53;46.67;;;;;;;-0.96;73.20;102089.50;6121621;23;20362;-70
2022/12/02 01:11:14;;;;;;;100.18;47.38;;;;;;;-0.98;73.35;102086.09;6121366;23;20014;-69
2022/12/02 01:13:41;;;;;;;107.07;48.90;;;;;;;-1.06;73.60;102086.31;6121709;23;20351;-69
2022/12/02 01:16:07;;;;;;;94.00;45.20;;;;;;;-1.22;73.78;102086.00;6123358;23;20038;-70
2022/12/02 01:18:34;;;;;;;98.65;47.13;;;;;;;-1.12;73.53;102073.38;6122649;23;20029;-69
2022/12/02 01:21:01;;;;;;;97.00;47.13;;;;;;;-0.98;73.67;102080.81;6122308;23;20026;-70
2022/12/02 01:23:27;;;;;;;98.63;46.90;;;;;;;-1.08;73.71;102079.41;6122402;23;20018;-70
2022/12/02 01:25:54;;;;;;;106.22;48.03;;;;;;;-1.14;73.75;102077.81;6123361;23;20497;-69
2022/12/02 01:28:21;;;;;;;104.85;49.08;;;;;;;-1.03;73.75;102083.59;6123860;23;20033;-70
2022/12/02 01:30:47;;;;;;;102.65;48.47;;;;;;;-0.96;73.46;102078.97;6123959;23;20022;-70
2022/12/02 01:33:14;;;;;;;104.30;47.97;;;;;;;-1.03;73.47;102075.69;6123314;23;20037;-71
2022/12/02 01:35:41;;;;;;;103.10;47.38;;;;;;;-0.84;73.33;102078.56;6122588;23;20018;-70
2022/12/02 01:38:07;;;;;;;104.75;48.53;;;;;;;-0.84;73.23;102086.47;6124490;23;20041;-69
2022/12/02 01:40:34;;;;;;;110.20;49.88;;;;;;;-0.78;72.85;102082.72;6123368;23;20018;-70
2022/12/02 01:43:00;;;;;;;101.30;47.47;;;;;;;-0.91;73.22;102088.44;6124022;23;20030;-69
2022/12/02 01:45:27;;;;;;;109.10;49.38;;;;;;;-0.80;73.11;102089.84;6123349;23;20100;-69
2022/12/02 01:47:54;;;;;;;97.93;47.15;;;;;;;-0.91;73.49;102082.31;6123238;23;20041;-70
2022/12/02 01:50:20;;;;;;;103.00;48.85;;;;;;;-0.92;73.26;102086.75;6122037;23;20097;-69
2022/12/02 01:52:47;;;;;;;101.43;47.65;;;;;;;-0.94;73.58;102082.44;6123180;23;20026;-69
2022/12/02 01:55:21;;;;;;;102.50;48.55;;;;;;;-0.85;73.48;102070.69;6123071;23;20044;-69
2022/12/02 01:57:47;;;;;;;98.65;46.08;;;;;;;-0.91;73.83;102075.28;6124117;23;20022;-69
2022/12/02 02:00:14;;;;;;;97.32;46.97;;;;;;;-1.05;73.80;102074.91;6122559;23;20018;-69
2022/12/02 02:02:41;;;;;;;102.88;47.85;;;;;;;-1.09;73.93;102078.53;6123130;23;20028;-70
2022/12/02 02:08:56;;;;;;;96.70;45.50;;;;;;;-1.04;74.07;102081.88;6123183;23;20044;-69
2022/12/02 02:11:23;;;;;;;103.32;48.15;;;;;;;-0.92;73.93;102076.19;6123822;23;20045;-69
2022/12/02 02:13:51;;;;;;;108.35;49.55;;;;;;;-1.03;74.17;102072.19;6123673;23;20030;-70
2022/12/02 02:16:18;;;;;;;106.35;45.50;;;;;;;-0.98;73.99;102075.53;6122815;23;20044;-69
2022/12/02 02:18:44;;;;;;;105.43;48.22;;;;;;;-0.95;73.92;102070.19;6123622;23;20455;-69
2022/12/02 02:21:19;;;;;;;103.90;47.03;;;;;;;-1.02;74.30;102069.53;6122991;23;20017;-69
2022/12/02 02:23:45;;;;;;;103.53;46.97;;;;;;;-1.15;74.38;102062.94;6123561;23;20363;-69
2022/12/02 02:26:12;;;;;;;96.57;45.90;;;;;;;-1.26;75.39;102059.81;6117699;23;20022;-69
2022/12/02 02:28:39;;;;;;;109.15;49.30;;;;;;;-1.28;75.18;102066.91;6115792;23;20022;-69
2022/12/02 02:31:05;;;;;;;102.68;49.03;;;;;;;-1.14;74.73;102064.66;6123880;23;20021;-69
2022/12/02 02:33:33;;;;;;;109.03;48.22;;;;;;;-1.13;75.13;102061.09;6122069;23;20041;-69
2022/12/02 02:36:00;;;;;;;103.35;47.50;;;;;;;-0.94;74.69;102075.38;6123359;23;20447;-69
2022/12/02 02:38:29;;;;;;;111.85;49.88;;;;;;;-1.08;74.60;102068.88;6122633;23;20028;-69
2022/12/02 02:40:56;;;;;;;105.60;48.13;;;;;;;-1.12;75.04;102072.53;6124025;23;20029;-70
2022/12/02 02:43:26;;;;;;;102.47;47.90;;;;;;;-1.26;75.67;102072.97;6122049;23;20550;-70
2022/12/02 02:45:53;;;;;;;107.80;48.80;;;;;;;-1.35;75.73;102074.13;6122466;23;20034;-69
2022/12/02 02:48:21;;;;;;;104.80;48.17;;;;;;;-1.32;76.09;102073.19;6122334;23;20022;-69
2022/12/02 02:50:49;;;;;;;109.38;48.53;;;;;;;-1.22;75.73;102071.97;6123193;23;20367;-69
2022/12/02 02:53:18;;;;;;;103.95;48.00;;;;;;;-1.24;75.88;102066.72;6123597;23;20021;-69
2022/12/02 02:55:45;;;;;;;109.07;48.03;;;;;;;-1.40;76.29;102065.53;6122264;23;20030;-69
2022/12/02 02:58:12;;;;;;;110.38;47.72;;;;;;;-1.20;76.22;102067.50;6123387;23;20022;-69
2022/12/02 03:00:40;;;;;;;118.63;51.53;;;;;;;-1.20;76.12;102060.44;6123821;23;20121;-68
2022/12/02 03:03:10;;;;;;;109.63;47.55;;;;;;;-1.49;76.75;102058.78;6124021;23;20029;-69
2022/12/02 03:05:38;;;;;;;108.75;48.05;;;;;;;-1.35;76.40;102060.13;6093734;23;20034;-69
2022/12/02 03:08:04;;;;;;;110.72;49.33;;;;;;;-1.41;77.30;102054.13;6092636;23;20022;-69
2022/12/02 03:10:31;;;;;;;114.97;48.50;;;;;;;-1.55;77.23;102061.59;6093549;23;20022;-69
2022/12/02 03:12:58;;;;;;;108.55;48.83;;;;;;;-1.47;77.11;102056.09;6094119;23;20095;-69
2022/12/02 03:15:27;;;;;;;114.38;49.72;;;;;;;-1.34;76.80;102053.94;6093447;23;20029;-69
2022/12/02 03:17:54;;;;;;;121.18;50.40;;;;;;;-1.40;76.54;102053.22;6093656;23;20034;-69
2022/12/02 03:20:22;;;;;;;107.78;48.38;;;;;;;-1.47;77.03;102051.72;6093348;23;20026;-68
2022/12/02 03:22:49;;;;;;;117.20;48.60;;;;;;;-1.40;76.89;102045.34;6093408;23;20084;-68
2022/12/02 03:25:15;;;;;;;111.18;47.65;;;;;;;-1.45;76.72;102052.50;6093951;23;20359;-68
2022/12/02 03:27:42;;;;;;;109.95;49.35;;;;;;;-1.34;77.05;102057.41;6092940;23;20022;-69
2022/12/02 03:30:09;;;;;;;112.07;50.60;;;;;;;-1.25;76.65;102056.25;6094120;23;20022;-69
2022/12/02 03:32:42;;;;;;;106.78;48.95;;;;;;;-1.32;76.52;102057.38;6094490;23;20030;-69
2022/12/02 03:35:08;;;;;;;110.47;48.30;;;;;;;-1.31;76.54;102052.06;6073553;23;20018;-69
2022/12/02 03:37:35;;;;;;;112.20;49.58;;;;;;;-1.35;76.55;102047.81;6093623;23;20329;-69
2022/12/02 03:40:02;;;;;;;108.50;49.35;;;;;;;-1.24;76.64;102047.44;6093272;23;20033;-68
2022/12/02 03:42:29;;;;;;;113.30;51.50;;;;;;;-1.16;75.96;102041.03;6092991;23;20125;-69
2022/12/02 03:44:55;;;;;;;114.38;49.13;;;;;;;-1.19;75.84;102042.91;6092998;23;20033;-69
2022/12/02 03:47:22;;;;;;;110.63;48.88;;;;;;;-1.19;76.39;102041.13;6093210;23;20022;-69
2022/12/02 03:49:48;;;;;;;110.35;49.65;;;;;;;-1.12;76.30;102046.19;6092402;23;20014;-69
2022/12/02 03:52:15;;;;;;;109.50;50.72;;;;;;;-1.18;76.48;102031.44;6093987;23;20018;-69
2022/12/02 03:54:42;;;;;;;112.70;49.67;;;;;;;-1.32;76.43;102041.59;6093911;23;20030;-69
2022/12/02 03:57:08;;;;;;;105.80;47.17;;;;;;;-1.17;76.50;102041.91;6092814;23;20025;-69
2022/12/02 03:59:34;;;;;;;109.75;47.58;;;;;;;-1.05;76.04;102040.66;6093608;23;20406;-69
2022/12/02 04:02:01;;;;;;;114.93;48.90;;;;;;;-1.11;76.15;102043.50;6093456;23;20030;-69
2022/12/02 04:04:28;;;;;;;111.00;49.70;;;;;;;-1.16;75.99;102030.50;6093461;23;20097;-69
2022/12/02 04:06:54;;;;;;;113.97;47.95;;;;;;;-1.21;76.51;102039.44;6092803;23;21998;-69
2022/12/02 04:09:21;;;;;;;109.18;47.53;;;;;;;-1.25;76.26;102029.94;6093766;23;20022;-69
2022/12/02 04:11:47;;;;;;;105.32;46.75;;;;;;;-1.33;76.64;102029.31;6092909;23;20030;-69
2022/12/02 04:14:13;;;;;;;115.50;49.08;;;;;;;-1.28;76.46;102030.88;6116934;23;20025;-68
2022/12/02 04:16:40;;;;;;;105.47;45.20;;;;;;;-1.47;76.64;102029.78;6121789;23;20022;-68
2022/12/02 04:19:06;;;;;;;104.43;45.53;;;;;;;-1.53;77.14;102030.00;6122801;23;20028;-68
2022/12/02 04:21:33;;;;;;;99.32;46.53;;;;;;;-1.58;77.45;102038.03;6122371;23;20022;-68
2022/12/02 04:23:59;;;;;;;98.07;44.08;;;;;;;-1.61;77.15;102030.25;6122353;23;20057;-68
2022/12/02 04:26:26;;;;;;;96.82;43.67;;;;;;;-1.42;77.48;102028.72;6121942;23;20026;-69
2022/12/02 04:28:52;;;;;;;99.18;45.95;;;;;;;-1.30;76.54;102031.84;6122433;23;20022;-69
2022/12/02 04:31:19;;;;;;;100.38;46.03;;;;;;;-1.27;76.39;102026.47;6122215;23;20056;-69
2022/12/02 04:33:45;;;;;;;92.95;44.30;;;;;;;-1.50;76.70;102020.22;6123755;23;20022;-68
2022/12/02 04:36:12;;;;;;;89.13;42.13;;;;;;;-1.42;76.73;102027.88;6122233;23;20021;-68
2022/12/02 04:38:38;;;;;;;87.07;41.83;;;;;;;-1.47;76.48;102028.03;6122821;23;20022;-68
2022/12/02 04:41:05;;;;;;;88.90;41.63;;;;;;;-1.36;75.97;102027.66;6121078;23;20355;-68
2022/12/02 04:43:31;;;;;;;87.00;41.35;;;;;;;-1.39;75.89;102031.25;6122717;23;20017;-69
2022/12/02 04:45:58;;;;;;;88.57;42.75;;;;;;;-1.37;75.65;102031.19;6120855;23;20022;-68
2022/12/02 04:48:25;;;;;;;89.35;42.72;;;;;;;-1.29;75.36;102033.59;6121945;23;20450;-68
2022/12/02 04:50:51;;;;;;;88.68;41.72;;;;;;;-1.25;75.33;102032.56;6123836;23;20033;-68
2022/12/02 04:53:18;;;;;;;93.85;41.90;;;;;;;-1.15;75.20;102024.28;6121492;23;20022;-68
2022/12/02 04:55:45;;;;;;;80.60;40.15;;;;;;;-1.21;75.26;102021.88;6120884;23;20026;-68
2022/12/02 04:58:13;;;;;;;79.63;38.92;;;;;;;-1.35;75.20;102025.88;6123371;23;20018;-68
2022/12/02 05:00:39;;;;;;;79.63;38.80;;;;;;;-1.27;74.75;102015.94;6092798;23;20024;-68
2022/12/02 05:03:06;;;;;;;80.72;39.63;;;;;;;-1.30;74.78;102018.69;6070336;23;20022;-68
2022/12/02 05:05:33;;;;;;;77.90;39.70;;;;;;;-1.32;74.72;102013.47;6094639;23;20019;-68
2022/12/02 05:08:00;;;;;;;74.70;37.60;;;;;;;-1.41;74.42;102006.75;6094479;23;20033;-68
2022/12/02 05:10:26;;;;;;;71.82;36.97;;;;;;;-1.28;74.95;102015.09;6094901;23;20459;-68
2022/12/02 05:12:53;;;;;;;73.95;37.85;;;;;;;-1.36;74.88;102016.28;6094557;23;20455;-68
2022/12/02 05:15:20;;;;;;;79.75;39.47;;;;;;;-1.31;74.04;102009.06;6094142;23;20029;-68
2022/12/02 05:17:46;;;;;;;75.35;38.85;;;;;;;-1.25;74.52;102022.88;6092784;23;20455;-68
2022/12/02 05:20:13;;;;;;;77.05;37.80;;;;;;;-1.32;74.29;102018.75;6094030;23;20022;-68
2022/12/02 05:22:39;;;;;;;66.82;35.92;;;;;;;-1.58;74.73;102011.69;6094907;23;20028;-68
2022/12/02 05:25:06;;;;;;;63.00;34.47;;;;;;;-1.48;74.98;102012.25;6095210;23;20451;-69
2022/12/02 05:27:32;;;;;;;66.70;35.25;;;;;;;-1.48;74.88;102015.75;6093999;23;20030;-69
2022/12/02 05:30:06;;;;;;;72.63;35.72;;;;;;;-1.40;74.55;102011.13;6094525;23;20412;-68
2022/12/02 05:32:32;;;;;;;;;;;;;;;-1.35;74.68;102018.00;6094523;23;20344;-69
2022/12/02 05:34:59;;;;;;;72.60;35.97;;;;;;;-1.39;74.81;102012.81;6094885;23;19989;-69
2022/12/02 05:37:25;;;;;;;66.82;34.15;;;;;;;-1.26;74.32;102013.28;6094842;23;20014;-70
2022/12/02 05:39:52;;;;;;;72.53;34.78;;;;;;;-1.49;74.68;102019.31;6100166;23;20014;-62
2022/12/02 05:42:18;;;;;;;65.57;33.92;;;;;;;-1.41;74.97;102016.41;6109090;23;20026;-63
2022/12/02 05:44:45;;;;;;;70.28;35.35;;;;;;;-1.29;74.68;102010.75;6107754;23;20033;-62
2022/12/02 05:47:14;;;;;;;72.22;36.22;;;;;;;-1.34;74.16;102015.28;6108481;23;20077;-62
2022/12/02 05:49:42;;;;;;;68.18;35.95;;;;;;;-1.20;74.29;102012.19;6096894;23;20102;-63
2022/12/02 05:52:18;;;;;;;72.68;35.63;;;;;;;-1.20;73.95;102012.19;6109018;23;20037;-63
2022/12/02 05:54:45;;;;;;;63.40;33.33;;;;;;;-1.27;73.57;102014.16;6108351;23;20058;-62
2022/12/02 05:57:12;;;;;;;70.80;35.05;;;;;;;-1.35;73.71;102007.47;6109223;23;20023;-63
2022/12/02 05:59:39;;;;;;;65.00;33.13;;;;;;;-1.31;73.58;102011.69;6108570;23;20049;-66
2022/12/02 06:02:22;;;;;;;66.35;33.55;;;;;;;-1.16;73.49;102008.53;6108224;23;20105;-62
2022/12/02 06:04:49;;;;;;;70.05;33.65;;;;;;;-1.18;72.93;102013.88;6106510;23;20030;-63
2022/12/02 06:07:16;;;;;;;67.72;33.03;;;;;;;-1.03;72.47;102001.94;6106496;23;20082;-63
2022/12/02 06:09:43;;;;;;;60.42;31.40;;;;;;;-1.24;72.77;102000.06;6105891;23;20026;-63
2022/12/02 06:12:17;;;;;;;58.08;29.77;;;;;;;-1.48;72.88;102002.59;6106717;23;20025;-63
2022/12/02 06:14:50;;;;;;;53.70;29.80;;;;;;;-1.47;73.02;101999.06;6105881;23;20121;-63
2022/12/02 06:17:17;;;;;;;54.35;28.17;;;;;;;-1.43;72.92;102000.69;6104944;23;20077;-63
2022/12/02 06:19:53;;;;;;;57.25;30.92;;;;;;;-1.30;72.06;102010.78;6104807;23;20026;-64
2022/12/02 06:22:29;;;;;;;51.70;27.83;;;;;;;-1.50;72.60;102004.44;6107906;23;20035;-63
2022/12/02 06:24:59;;;;;;;56.78;29.45;;;;;;;-1.38;72.57;102008.41;6137203;23;20491;-63
2022/12/02 06:27:27;;;;;;;50.90;26.55;;;;;;;-1.36;72.43;102022.41;6137057;23;20384;-63
2022/12/02 06:29:57;;;;;;;54.40;27.50;;;;;;;-1.35;72.30;102020.63;6135716;23;20074;-63
2022/12/02 06:32:37;;;;;;;54.70;28.95;;;;;;;-1.31;71.80;102025.72;6138036;23;20449;-65
2022/12/02 06:35:15;;;;;;;51.40;28.25;;;;;;;-1.18;72.04;102034.06;6135296;23;20018;-63
2022/12/02 06:37:42;;;;;;;57.95;28.35;;;;;;;-1.07;71.38;102024.03;6137043;23;20451;-63
2022/12/02 06:40:38;;;;;;;57.35;29.33;;;;;;;-1.38;71.93;102025.06;6136813;23;20026;-64
2022/12/02 06:43:24;;;;;;;58.13;28.45;;;;;;;-1.23;71.79;102036.00;6134979;23;20017;-65
2022/12/02 06:45:51;;;;;;;52.17;28.17;;;;;;;-1.16;71.36;102034.88;6137053;23;20410;-65
2022/12/02 06:48:29;;;;;;;56.00;29.70;;;;;;;-1.20;71.42;102034.09;6126287;23;20024;-65
2022/12/02 06:51:18;;;;;;;57.80;29.50;;;;;;;-1.13;71.08;102042.66;6137133;23;20065;-64
2022/12/02 06:53:46;;;;;;;53.63;28.00;;;;;;;-1.18;71.35;102037.56;6134568;23;20492;-65
2022/12/02 06:56:16;;;;;;;56.40;30.38;;;;;;;-1.09;71.48;102030.25;6135672;23;20036;-65
2022/12/02 06:58:50;;;;;;;54.13;27.90;;;;;;;-1.17;71.14;102033.16;6136051;23;20030;-66
2022/12/02 07:01:28;;;;;;;56.58;28.52;;;;;;;-1.17;71.52;102030.53;6136249;23;20041;-64
2022/12/02 07:03:55;;;;;;;53.97;29.50;;;;;;;-1.32;71.67;102018.75;6136212;23;20044;-65
2022/12/02 07:06:27;;;;;;;58.10;29.33;;;;;;;-1.34;71.49;102020.56;6137167;23;20024;-63
2022/12/02 07:08:59;;;;;;;61.90;28.70;;;;;;;-1.32;71.54;102023.16;6136855;23;20030;-63
2022/12/02 07:11:48;;;;;;;56.78;28.38;;;;;;;-1.28;70.86;102024.78;6137849;23;20390;-64
2022/12/02 07:14:31;;;;;;;55.45;27.92;;;;;;;-1.35;71.51;102021.47;6107608;23;20506;-63
2022/12/02 07:17:37;;;;;;;57.50;29.52;;;;;;;-1.37;71.41;102018.03;6083839;23;20780;-65
2022/12/02 07:20:06;;;;;;;52.42;27.90;;;;;;;-1.21;71.05;102019.22;6107577;23;20062;-67
2022/12/02 07:22:39;;;;;;;54.80;28.25;;;;;;;-1.33;71.60;102021.41;6107330;23;20073;-66
2022/12/02 07:25:09;;;;;;;57.20;30.00;;;;;;;-1.23;71.11;102025.47;6130854;23;20078;-68
2022/12/02 07:27:39;;;;;;;58.63;29.85;;;;;;;-1.19;71.65;102013.94;6135668;23;20060;-67
2022/12/02 07:30:24;;;;;;;60.80;30.17;;;;;;;-1.08;71.50;102022.31;6138115;23;20017;-69
2022/12/02 07:32:51;;;;;;;57.80;29.73;;;;;;;-1.02;71.08;102024.75;6137473;23;20025;-67
2022/12/02 07:35:19;;;;;;;58.97;30.65;;;;;;;-1.10;70.60;102024.13;6138489;23;20105;-66
2022/12/02 07:37:45;;;;;;;60.88;29.60;;;;;;;-1.13;70.55;102018.97;6136943;23;20112;-67
2022/12/02 07:40:15;;;;;;;59.40;29.77;;;;;;;-1.00;70.47;102020.25;6136957;23;20044;-67
2022/12/02 07:42:42;;;;;;;59.88;29.60;;;;;;;-1.16;71.19;102024.34;6136836;23;20026;-67
2022/12/02 07:45:14;;;;;;;61.45;30.52;;;;;;;-1.25;71.11;102030.78;6139661;23;20078;-67
2022/12/02 07:47:40;;;;;;;62.05;29.42;;;;;;;-1.33;71.56;102030.19;6138070;23;20066;-69
2022/12/02 07:50:09;;;;;;;59.20;29.95;;;;;;;-1.24;71.63;102035.13;6137957;23;20038;-68
2022/12/02 07:52:35;;;;;;;59.95;30.25;;;;;;;-1.04;71.22;102031.81;6138259;23;20033;-71
2022/12/02 07:55:02;;;;;;;65.65;31.90;;;;;;;-1.09;71.33;102035.53;6138244;23;20026;-67
2022/12/02 07:57:29;;;;;;;65.32;30.67;;;;;;;-1.18;71.14;102028.81;6138636;23;20026;-69
2022/12/02 08:00:03;;;;;;;62.45;29.80;;;;;;;-1.15;71.49;102028.72;6138579;23;20017;-66
2022/12/02 08:02:29;;;;;;;66.15;31.50;;;;;;;-0.98;71.42;102033.41;6138075;23;20388;-66
2022/12/02 08:04:56;;;;;;;61.10;31.02;;;;;;;-0.97;71.48;102040.38;6138116;23;20078;-68
2022/12/02 08:07:22;;;;;;;55.00;29.70;;;;;;;-0.90;71.75;102034.84;6137938;23;20018;-67
2022/12/02 08:09:49;;;;;;;59.53;29.67;;;;;;;-1.12;71.97;102033.03;6138589;23;20033;-64
2022/12/02 08:12:15;;;;;;;59.95;29.17;;;;;;;-1.14;72.28;102027.78;6138421;23;20045;-67
2022/12/02 08:14:42;;;;;;;57.10;28.77;;;;;;;-1.17;72.62;102033.16;6138901;23;20026;-68
2022/12/02 08:17:08;;;;;;;62.20;29.42;;;;;;;-1.25;72.88;102032.56;6138025;23;20049;-68
2022/12/02 08:19:35;;;;;;;58.15;28.85;;;;;;;-1.29;73.02;102025.69;6139904;23;20026;-66
2022/12/02 08:22:01;;;;;;;58.38;27.88;;;;;;;-1.32;73.36;102031.06;6110273;23;20023;-67
2022/12/02 08:24:28;;;;;;;61.20;30.05;;;;;;;-1.06;72.90;102033.63;6108772;23;20329;-67
2022/12/02 08:26:54;;;;;;;64.35;29.00;;;;;;;-1.34;73.40;102030.22;6110277;23;20052;-66
2022/12/02 08:29:21;;;;;;;67.00;29.83;;;;;;;-1.16;73.64;102030.50;6109275;23;20033;-66
2022/12/02 08:31:47;;;;;;;63.78;29.33;;;;;;;-1.27;73.98;102039.66;6111310;23;20109;-68
2022/12/02 08:34:13;;;;;;;62.88;29.05;;;;;;;-1.28;73.66;102037.94;6093646;23;20029;-66
2022/12/02 08:36:40;;;;;;;57.83;29.02;;;;;;;-1.29;73.43;102037.06;6140339;23;20104;-69
2022/12/02 08:39:07;;;;;;;64.72;30.67;;;;;;;-1.22;73.64;102029.84;6141492;23;20026;-71
2022/12/02 08:41:35;;;;;;;58.30;28.10;;;;;;;-1.49;73.61;102035.09;6142392;23;20028;-67
2022/12/02 08:44:04;;;;;;;66.80;30.50;;;;;;;-1.31;73.61;102038.03;6142568;23;20515;-67
2022/12/02 08:46:31;;;;;;;65.05;29.88;;;;;;;-1.20;73.75;102038.53;6140819;23;20022;-68
2022/12/02 08:48:58;;;;;;;63.33;29.25;;;;;;;-1.31;73.42;102035.41;6142616;23;20021;-66
2022/12/02 08:51:25;;;;;;;75.38;30.63;;;;;;;-1.31;73.72;102030.13;6141700;23;20049;-67
2022/12/02 08:53:52;;;;;;;66.75;32.10;;;;;;;-1.15;73.92;102032.19;6141321;23;20053;-68
2022/12/02 08:56:19;;;;;;;64.32;30.23;;;;;;;-1.09;73.10;102032.88;6141355;23;20032;-66
2022/12/02 08:58:46;;;;;;;64.18;27.80;;;;;;;-1.24;73.12;102031.66;6142610;23;20034;-68
2022/12/02 09:01:12;;;;;;;66.82;31.38;;;;;;;-1.12;73.48;102036.50;6142546;23;20026;-67
2022/12/02 09:03:39;;;;;;;66.13;29.70;;;;;;;-1.36;73.50;102029.44;6142817;23;20081;-67
2022/12/02 09:06:05;;;;;;;68.05;30.40;;;;;;;-1.37;73.25;102028.56;6143917;23;20078;-68
2022/12/02 09:08:32;;;;;;;67.35;28.80;;;;;;;-1.31;72.79;102030.13;6143130;23;20012;-69
2022/12/02 09:10:59;;;;;;;72.32;31.05;;;;;;;-1.40;72.73;102034.81;6143638;23;20026;-67
2022/12/02 09:13:26;;;;;;;67.70;30.08;;;;;;;-1.11;72.27;102034.72;6143612;23;20026;-67
2022/12/02 09:15:53;;;;;;;69.80;31.90;;;;;;;-1.11;71.90;102032.09;6143795;23;20078;-68
2022/12/02 09:18:19;;;;;;;66.05;30.95;;;;;;;-0.99;72.26;102032.53;6142495;23;20013;-65
2022/12/02 09:20:47;;;;;;;72.70;31.40;;;;;;;-1.03;71.24;102033.53;6109253;23;20077;-67
2022/12/02 09:23:13;;;;;;;76.43;31.95;;;;;;;-0.96;71.23;102040.31;6137568;23;20077;-69
2022/12/02 09:25:40;;;;;;;67.93;30.15;;;;;;;-1.07;71.14;102031.94;6140137;23;20045;-66
2022/12/02 09:28:06;;;;;;;67.07;31.30;;;;;;;-0.87;70.32;102025.13;6143377;23;20074;-68
2022/12/02 09:30:33;;;;;;;76.95;30.75;;;;;;;-0.96;70.56;102029.78;6143230;23;20030;-69
2022/12/02 09:32:59;;;;;;;66.80;30.75;;;;;;;-1.02;70.63;102037.91;6144873;23;20022;-66
2022/12/02 09:35:26;;;;;;;66.60;29.88;;;;;;;-0.78;69.90;102030.94;6144943;23;20032;-69
2022/12/02 09:37:52;;;;;;;63.03;29.08;;;;;;;-0.94;69.66;102019.19;6143468;23;20030;-67
2022/12/02 09:40:19;;;;;;;62.08;28.98;;;;;;;-1.12;69.97;102025.97;6145385;23;20022;-65
2022/12/02 09:42:46;;;;;;;61.08;29.35;;;;;;;-1.13;69.71;102029.50;6144371;23;20074;-65
2022/12/02 09:45:14;;;;;;;67.38;27.67;;;;;;;-0.95;68.91;102026.25;6144943;23;20026;-68
2022/12/02 09:47:41;;;;;;;60.67;28.30;;;;;;;-0.85;69.27;102015.38;6146093;23;20077;-73
2022/12/02 09:50:12;;;;;;;60.50;27.83;;;;;;;-0.92;68.93;102012.97;6147782;23;20026;-66
2022/12/02 09:52:39;;;;;;;65.28;29.70;;;;;;;-0.84;69.35;102006.56;6116848;23;20038;-67
2022/12/02 09:55:12;;;;;;;63.65;27.92;;;;;;;-1.08;69.40;102008.28;6117490;23;20062;-68
2022/12/02 09:57:38;;;;;;;58.50;28.75;;;;;;;-0.82;68.69;102010.84;6138933;23;20022;-66
2022/12/02 10:00:13;;;;;;;69.78;29.70;;;;;;;-0.94;69.06;102009.53;6145948;23;20065;-65
2022/12/02 10:02:43;;;;;;;69.15;29.40;;;;;;;-0.85;69.03;102012.72;6119032;23;20037;-66
2022/12/02 10:05:23;;;;;;;65.45;29.95;;;;;;;-1.11;69.27;101996.09;6140025;23;20024;-66
2022/12/02 10:07:52;;;;;;;67.05;29.58;;;;;;;-0.96;69.33;102000.81;6144076;23;20034;-65
2022/12/02 10:10:22;;;;;;;70.50;29.67;;;;;;;-0.96;69.33;101999.94;6144494;23;20024;-66
2022/12/02 10:12:49;;;;;;;69.57;30.40;;;;;;;-1.04;69.62;102000.22;6145107;23;20049;-65
2022/12/02 10:15:21;;;;;;;65.93;29.38;;;;;;;-0.97;69.55;102001.72;6144427;23;20079;-66
2022/12/02 10:17:48;;;;;;;65.43;29.77;;;;;;;-1.07;69.85;101992.41;6142442;23;20025;-67
2022/12/02 10:20:24;;;;;;;69.55;29.30;;;;;;;-0.95;69.68;101994.63;6143326;23;20097;-66
2022/12/02 10:23:14;;;;;;;67.55;30.05;;;;;;;-1.11;69.88;101993.44;6143771;23;20022;-66
2022/12/02 10:25:47;;;;;;;64.25;28.25;;;;;;;-1.19;70.51;101991.09;6141366;23;20037;-65
2022/12/02 10:28:18;;;;;;;76.30;29.75;;;;;;;-1.20;70.74;101986.72;6142165;23;20021;-68
2022/12/02 10:30:51;;;;;;;63.08;28.10;;;;;;;-1.21;70.38;101989.41;6142717;23;20262;-64
2022/12/02 10:33:22;;;;;;;66.38;29.13;;;;;;;-1.03;70.43;101990.53;6142948;23;20077;-69
2022/12/02 10:35:50;;;;;;;71.18;30.38;;;;;;;-1.00;70.62;101983.38;6143067;23;20029;-68
2022/12/02 10:38:29;;;;;;;64.32;30.50;;;;;;;-1.15;70.94;101979.53;6143446;23;20025;-66
2022/12/02 10:41:14;;;;;;;76.05;30.42;;;;;;;-1.31;71.26;101975.69;6144213;23;20038;-66
2022/12/02 10:43:42;;;;;;;70.13;31.02;;;;;;;-1.12;70.84;101973.31;6142987;23;20029;-67
2022/12/02 10:46:13;;;;;;;71.35;32.10;;;;;;;-0.90;70.45;101976.88;6137230;23;20073;-66
2022/12/02 10:48:40;;;;;;;72.10;31.55;;;;;;;-0.82;70.13;101973.09;6139903;23;20037;-65
2022/12/02 10:51:13;;;;;;;70.78;32.35;;;;;;;-0.85;69.93;101973.22;6141389;23;20097;-64
2022/12/02 10:53:41;;;;;;;69.18;30.42;;;;;;;-0.84;70.05;101978.44;6134681;23;20026;-68
2022/12/02 10:56:16;;;;;;;74.03;32.25;;;;;;;-0.80;69.95;101981.81;6128568;23;20029;-64
2022/12/02 10:58:43;;;;;;;78.65;32.80;;;;;;;-0.95;70.67;101968.28;6140256;23;20021;-68
2022/12/02 11:01:11;;;;;;;70.30;30.42;;;;;;;-0.86;70.50;101972.34;6141347;23;20101;-65
2022/12/02 11:03:39;;;;;;;76.18;33.65;;;;;;;-0.94;70.22;101963.88;6141600;23;20018;-65
2022/12/02 11:06:18;;;;;;;78.70;33.50;;;;;;;-0.57;69.60;101966.03;6140186;23;20074;-66
2022/12/02 11:08:46;;;;;;;75.47;32.35;;;;;;;-0.81;70.10;101972.22;6142151;23;20082;-64
2022/12/02 11:11:37;;;;;;;79.22;34.25;;;;;;;-1.06;71.00;101970.44;6141422;23;20041;-71
2022/12/02 11:14:25;;;;;;;84.93;34.38;;;;;;;-1.17;71.23;101964.69;6142608;23;20054;-66
2022/12/02 11:17:11;;;;;;;74.20;32.67;;;;;;;-1.12;71.36;101968.03;6124862;23;20418;-66
2022/12/02 11:19:44;;;;;;;84.88;35.47;;;;;;;-1.15;71.07;101965.50;6141851;23;20081;-69
2022/12/02 11:22:48;;;;;;;83.85;34.95;;;;;;;-1.27;70.92;101960.66;6141018;23;20101;-66